createdAt,value
2023-01-12T00:02:24.008Z,10.52
2023-01-12T00:04:52.988Z,7.45
2023-01-12T00:07:22.295Z,11.40
2023-01-12T00:12:23.846Z,6.78
2023-01-12T00:15:04.858Z,10.60
2023-01-12T00:17:36.584Z,8.65
2023-01-12T00:20:09.898Z,10.07
2023-01-12T00:22:37.612Z,8.85
2023-01-12T00:25:16.501Z,11.25
2023-01-12T00:27:49.505Z,10.52
2023-01-12T00:30:24.492Z,10.25
2023-01-12T00:32:51.809Z,7.88
2023-01-12T00:35:24.528Z,10.45
2023-01-12T00:37:54.165Z,10.52
2023-01-12T00:40:24.689Z,14.07
2023-01-12T00:43:14.045Z,10.75
2023-01-12T00:45:43.548Z,7.25
2023-01-12T00:48:12.831Z,7.50
2023-01-12T00:50:39.665Z,6.20
2023-01-12T00:53:14.009Z,10.93
2023-01-12T00:55:43.182Z,4.03
2023-01-12T00:58:22.534Z,9.05
2023-01-12T01:00:54.933Z,9.85
2023-01-12T01:03:22.067Z,11.13
2023-01-12T01:05:54.756Z,10.23
2023-01-12T01:08:28.730Z,7.03
2023-01-12T01:11:11.322Z,9.20
2023-01-12T01:13:48.358Z,8.73
2023-01-12T01:16:19.872Z,10.95
2023-01-12T01:18:57.828Z,6.97
2023-01-12T01:21:31.446Z,9.13
2023-01-12T01:24:11.479Z,7.30
2023-01-12T01:26:38.707Z,8.95
2023-01-12T01:29:08.526Z,9.15
2023-01-12T01:31:38.046Z,8.25
2023-01-12T01:36:31.716Z,7.90
2023-01-12T01:38:58.740Z,8.43
2023-01-12T01:41:33.837Z,6.28
2023-01-12T01:44:03.098Z,8.02
2023-01-12T01:46:50.642Z,11.55
2023-01-12T01:49:34.639Z,6.72
2023-01-12T01:52:10.848Z,11.27
2023-01-12T01:54:48.718Z,7.68
2023-01-12T01:57:18.467Z,11.70
2023-01-12T01:59:52.920Z,12.57
2023-01-12T02:02:20.257Z,7.85
2023-01-12T02:04:53.987Z,7.30
2023-01-12T02:07:26.562Z,12.50
2023-01-12T02:09:55.646Z,11.73
2023-01-12T02:12:42.286Z,10.65
2023-01-12T02:15:28.981Z,9.30
2023-01-12T02:17:58.490Z,8.05
2023-01-12T02:20:49.862Z,9.50
2023-01-12T02:23:34.429Z,10.32
2023-01-12T02:26:12.915Z,9.38
2023-01-12T02:29:13.757Z,11.52
2023-01-12T02:31:50.975Z,11.77
2023-01-12T02:35:02.424Z,10.05
2023-01-12T02:37:38.857Z,10.63
2023-01-12T02:40:44.253Z,6.68
2023-01-12T02:43:28.368Z,9.63
2023-01-12T02:46:25.365Z,9.25
2023-01-12T02:49:15.561Z,11.10
2023-01-12T02:52:05.561Z,14.60
2023-01-12T02:54:40.794Z,9.65
2023-01-12T02:57:12.458Z,10.50
2023-01-12T02:59:51.815Z,14.20
2023-01-12T03:02:36.375Z,9.55
2023-01-12T03:05:17.175Z,17.05
2023-01-12T03:08:01.830Z,9.60
2023-01-12T03:10:40.979Z,12.02
2023-01-12T03:13:11.025Z,8.30
2023-01-12T03:15:42.054Z,8.90
2023-01-12T03:18:16.414Z,7.55
2023-01-12T03:21:07.797Z,14.77
2023-01-12T03:23:47.936Z,7.75
2023-01-12T03:26:19.363Z,11.02
2023-01-12T03:28:54.597Z,7.68
2023-01-12T03:31:23.439Z,10.30
2023-01-12T03:33:51.083Z,8.57
2023-01-12T03:36:52.339Z,7.38
2023-01-12T03:39:40.250Z,9.75
2023-01-12T03:42:14.278Z,11.73
2023-01-12T03:45:12.936Z,9.70
2023-01-12T03:47:50.912Z,13.27
2023-01-12T03:50:35.061Z,10.23
2023-01-12T03:53:14.699Z,7.65
2023-01-12T03:55:52.587Z,11.02
2023-01-12T03:58:22.668Z,9.07
2023-01-12T04:00:51.981Z,10.45
2023-01-12T04:03:26.397Z,8.73
2023-01-12T04:05:55.688Z,9.75
2023-01-12T04:08:28.570Z,9.38
2023-01-12T04:10:56.200Z,9.13
2023-01-12T04:13:22.987Z,7.65
2023-01-12T04:15:49.829Z,8.02
2023-01-12T04:18:16.442Z,8.38
2023-01-12T04:20:43.122Z,7.63
2023-01-12T04:23:10.176Z,8.40
2023-01-12T04:25:37.042Z,8.43
2023-01-12T04:28:07.241Z,12.82
2023-01-12T04:30:34.741Z,13.48
2023-01-12T04:33:09.312Z,10.98
2023-01-12T04:35:36.073Z,10.32
2023-01-12T04:38:07.586Z,7.95
2023-01-12T04:40:38.450Z,8.00
2023-01-12T04:43:07.973Z,9.57
2023-01-12T04:45:43.866Z,8.88
2023-01-12T04:48:13.133Z,10.02
2023-01-12T04:50:40.654Z,11.13
2023-01-12T04:53:10.231Z,10.75
2023-01-12T04:55:39.263Z,13.80
2023-01-12T04:58:09.187Z,13.50
2023-01-12T05:00:39.915Z,11.32
2023-01-12T05:03:13.202Z,7.85
2023-01-12T05:05:40.085Z,8.63
2023-01-12T05:08:30.065Z,13.13
2023-01-12T05:11:01.514Z,10.80
2023-01-12T05:13:31.956Z,9.48
2023-01-12T05:16:18.956Z,8.00
2023-01-12T05:18:53.388Z,8.93
2023-01-12T05:21:27.260Z,11.52
2023-01-12T05:23:54.192Z,10.32
2023-01-12T05:26:20.833Z,9.77
2023-01-12T05:28:52.099Z,7.65
2023-01-12T05:31:19.689Z,9.35
2023-01-12T05:33:46.733Z,8.52
2023-01-12T05:36:21.749Z,11.55
2023-01-12T05:38:53.752Z,13.73
2023-01-12T05:42:03.473Z,11.18
2023-01-12T05:44:41.380Z,7.45
2023-01-12T05:47:12.852Z,9.38
2023-01-12T05:49:53.630Z,12.30
2023-01-12T05:52:23.541Z,10.30
2023-01-12T05:54:53.358Z,6.53
2023-01-12T05:57:21.351Z,10.75
2023-01-12T05:59:54.757Z,11.18
2023-01-12T06:02:29.702Z,7.43
2023-01-12T06:05:00.698Z,9.95
2023-01-12T06:07:32.507Z,11.07
2023-01-12T06:10:00.801Z,9.50
2023-01-12T06:12:45.869Z,5.40
2023-01-12T06:15:15.114Z,7.80
2023-01-12T06:20:15.002Z,9.75
2023-01-12T06:22:44.829Z,5.35
2023-01-12T06:25:11.920Z,7.85
2023-01-12T06:27:39.080Z,10.63
2023-01-12T06:30:14.634Z,10.40
2023-01-12T06:32:42.931Z,7.68
2023-01-12T06:35:19.195Z,9.73
2023-01-12T06:37:46.890Z,11.93
2023-01-12T06:40:13.795Z,8.43
2023-01-12T06:42:42.326Z,8.93
2023-01-12T06:45:09.762Z,10.45
2023-01-12T06:47:44.672Z,14.70
2023-01-12T06:50:12.908Z,24.52
2023-01-12T06:52:39.459Z,32.35
2023-01-12T06:55:10.395Z,8.80
2023-01-12T06:57:39.136Z,7.88
2023-01-12T07:00:09.538Z,6.97
2023-01-12T07:02:41.251Z,8.80
2023-01-12T07:05:17.678Z,10.05
2023-01-12T07:07:47.099Z,13.15
2023-01-12T07:10:17.530Z,10.48
2023-01-12T07:12:44.565Z,10.20
2023-01-12T07:15:13.940Z,9.40
2023-01-12T07:20:07.886Z,10.73
2023-01-12T07:22:34.626Z,8.43
2023-01-12T07:25:01.318Z,6.43
2023-01-12T07:27:28.031Z,9.27
2023-01-12T07:29:57.566Z,12.98
2023-01-12T07:32:29.504Z,8.07
2023-01-12T07:34:56.349Z,6.05
2023-01-12T07:37:22.920Z,7.13
2023-01-12T07:39:49.938Z,11.27
2023-01-12T07:42:28.861Z,8.15
2023-01-12T07:44:56.431Z,8.30
2023-01-12T07:47:27.162Z,8.88
2023-01-12T07:49:56.673Z,8.70
2023-01-12T07:52:24.214Z,8.35
2023-01-12T07:54:56.921Z,7.95
2023-01-12T07:57:29.972Z,7.05
2023-01-12T07:59:58.859Z,4.88
2023-01-12T08:03:42.705Z,7.85
2023-01-12T08:06:07.528Z,8.70
2023-01-12T08:10:08.811Z,17.92
2023-01-12T08:13:49.688Z,8.98
2023-01-12T08:16:37.893Z,4.97
2023-01-12T08:19:38.879Z,10.55
2023-01-12T08:23:41.716Z,9.38
2023-01-12T08:26:42.073Z,7.25
2023-01-12T08:29:41.152Z,7.03
2023-01-12T08:32:43.486Z,6.78
2023-01-12T08:35:16.797Z,8.02
2023-01-12T08:37:55.527Z,7.95
2023-01-12T08:40:53.251Z,9.52
2023-01-12T08:44:41.093Z,8.13
2023-01-12T08:51:29.495Z,7.90
2023-01-12T08:54:00.388Z,3.92
2023-01-12T08:56:27.593Z,10.15
2023-01-12T08:58:54.833Z,7.45
2023-01-12T09:02:25.554Z,5.30
2023-01-12T09:12:18.436Z,8.35
2023-01-12T09:14:49.542Z,5.82
2023-01-12T09:17:18.365Z,7.55
2023-01-12T09:19:51.334Z,5.47
2023-01-12T09:22:22.474Z,9.13
2023-01-12T09:24:50.528Z,7.10
2023-01-12T09:27:20.365Z,8.60
2023-01-12T09:29:48.148Z,8.10
2023-01-12T09:32:22.842Z,5.90
2023-01-12T09:34:50.431Z,4.88
2023-01-12T09:41:16.683Z,5.80
2023-01-12T09:47:33.722Z,15.73
2023-01-12T09:50:50.194Z,6.78
2023-01-12T09:53:47.328Z,9.38
2023-01-12T09:57:33.212Z,4.25
2023-01-12T10:00:57.827Z,6.22
2023-01-12T10:07:26.684Z,6.63
2023-01-12T10:14:25.697Z,6.95
2023-01-12T10:17:50.581Z,5.90
2023-01-12T10:21:04.903Z,5.03
2023-01-12T10:24:24.691Z,7.97
2023-01-12T10:27:36.878Z,4.57
2023-01-12T10:30:47.937Z,4.63
2023-01-12T10:33:55.919Z,6.70
2023-01-12T10:37:14.969Z,6.35
2023-01-12T10:39:50.608Z,6.57
2023-01-12T10:42:49.990Z,6.45
2023-01-12T10:52:49.913Z,5.22
2023-01-12T10:56:05.790Z,7.20
2023-01-12T10:59:38.809Z,4.32
2023-01-12T11:02:26.666Z,7.72
2023-01-12T11:05:36.778Z,6.18
2023-01-12T11:09:11.530Z,4.70
2023-01-12T11:12:36.491Z,5.97
2023-01-12T11:15:41.898Z,3.95
2023-01-12T11:25:16.260Z,5.00
2023-01-12T11:28:50.697Z,3.30
2023-01-12T11:31:38.996Z,4.18
2023-01-12T11:34:48.991Z,7.20
2023-01-12T11:41:34.885Z,3.17
2023-01-12T11:48:05.738Z,3.38
2023-01-12T11:53:50.006Z,4.90
2023-01-12T11:57:12.249Z,2.63
2023-01-12T12:00:10.821Z,4.22
2023-01-12T12:03:09.942Z,4.78
2023-01-12T12:05:49.676Z,3.55
2023-01-12T12:08:38.526Z,2.90
2023-01-12T12:11:07.924Z,4.60
2023-01-12T12:13:57.936Z,3.47
2023-01-12T12:16:42.576Z,3.30
2023-01-12T12:19:28.357Z,2.60
2023-01-12T12:22:38.777Z,2.92
2023-01-12T12:25:29.260Z,4.45
2023-01-12T12:28:18.520Z,1.25
2023-01-12T12:31:46.428Z,1.27
2023-01-12T12:35:21.216Z,1.85
2023-01-12T12:38:42.337Z,1.20
2023-01-12T12:42:24.796Z,2.60
2023-01-12T12:45:42.329Z,3.15
2023-01-12T12:51:55.407Z,3.05
2023-01-12T12:54:50.828Z,3.42
2023-01-12T12:58:06.346Z,2.95
2023-01-12T13:00:56.325Z,3.92
2023-01-12T13:07:40.518Z,3.80
2023-01-12T13:13:59.546Z,3.00
2023-01-12T13:17:02.982Z,2.42
2023-01-12T13:20:00.784Z,2.85
2023-01-12T13:24:00.039Z,1.02
2023-01-12T13:27:36.919Z,3.17
2023-01-12T13:30:53.184Z,2.45
2023-01-12T13:33:48.219Z,5.07
2023-01-12T13:45:51.365Z,1.67
2023-01-12T13:48:51.220Z,1.92
2023-01-12T13:52:02.076Z,0.93
2023-01-12T13:55:26.968Z,3.20
2023-01-12T13:58:20.875Z,3.97
2023-01-12T14:04:48.144Z,4.47
2023-01-12T14:07:25.860Z,1.58
2023-01-12T14:10:20.495Z,2.53
2023-01-12T14:13:07.958Z,2.58
2023-01-12T14:16:01.665Z,4.30
2023-01-12T14:18:41.577Z,1.60
2023-01-12T14:21:36.770Z,2.45
2023-01-12T14:26:42.620Z,3.95
2023-01-12T14:29:11.567Z,3.15
2023-01-12T14:31:44.332Z,3.13
2023-01-12T14:34:35.421Z,1.52
2023-01-12T14:37:07.070Z,2.28
2023-01-12T14:39:41.083Z,1.95
2023-01-12T14:42:40.087Z,1.92
2023-01-12T14:45:38.657Z,8.15
2023-01-12T14:48:23.920Z,2.70
2023-01-12T14:51:21.717Z,2.05
2023-01-12T14:53:56.114Z,1.35
2023-01-12T14:56:31.154Z,0.90
2023-01-12T14:59:08.511Z,2.60
2023-01-12T15:01:38.207Z,0.85
2023-01-12T15:04:07.481Z,1.27
2023-01-12T15:06:41.683Z,1.20
2023-01-12T15:09:25.622Z,2.60
2023-01-12T15:11:55.235Z,2.03
2023-01-12T15:14:25.373Z,1.50
2023-01-12T15:17:14.426Z,0.90
2023-01-12T15:20:03.210Z,2.58
2023-01-12T15:22:59.419Z,0.75
2023-01-12T15:25:39.472Z,2.03
2023-01-12T15:28:07.360Z,0.77
2023-01-12T15:30:38.685Z,1.58
2023-01-12T15:33:05.969Z,1.83
2023-01-12T15:35:38.226Z,1.55
2023-01-12T15:38:05.849Z,2.58
2023-01-12T15:40:34.790Z,1.33
2023-01-12T15:43:04.634Z,1.85
2023-01-12T15:45:38.252Z,1.23
2023-01-12T15:48:05.673Z,1.92
2023-01-12T15:50:37.034Z,0.65
2023-01-12T15:53:03.491Z,0.77
2023-01-12T15:56:32.712Z,1.55
2023-01-12T15:58:59.336Z,1.42
2023-01-12T16:01:33.222Z,0.95
2023-01-12T16:04:35.628Z,1.88
2023-01-12T16:06:47.076Z,2.75
2023-01-12T16:09:14.727Z,1.48
2023-01-12T16:11:42.276Z,1.25
2023-01-12T16:14:08.898Z,2.00
2023-01-12T16:16:39.285Z,1.23
2023-01-12T16:19:09.815Z,1.23
2023-01-12T16:21:36.580Z,1.65
2023-01-12T16:24:03.396Z,1.38
2023-01-12T16:26:30.700Z,1.80
2023-01-12T16:28:57.734Z,1.77
2023-01-12T16:31:26.268Z,1.17
2023-01-12T16:33:52.851Z,7.13
2023-01-12T16:36:19.288Z,0.73
2023-01-12T16:38:45.655Z,1.98
2023-01-12T16:41:22.043Z,1.15
2023-01-12T16:43:49.281Z,1.73
2023-01-12T16:46:16.051Z,2.60
2023-01-12T16:48:42.939Z,1.65
2023-01-12T16:51:14.363Z,1.98
2023-01-12T16:53:41.741Z,1.17
2023-01-12T16:56:13.285Z,1.65
2023-01-12T16:58:41.707Z,1.92
2023-01-12T17:01:12.597Z,1.88
2023-01-12T17:03:41.440Z,1.80
2023-01-12T17:08:39.473Z,1.08
2023-01-12T17:11:12.013Z,2.05
2023-01-12T17:13:38.965Z,1.55
2023-01-12T17:16:12.141Z,1.45
2023-01-12T17:18:44.049Z,1.35
2023-01-12T17:21:13.811Z,1.55
2023-01-12T17:23:42.381Z,1.30
2023-01-12T17:26:13.430Z,2.10
2023-01-12T17:28:40.960Z,1.80
2023-01-12T17:31:13.422Z,1.20
2023-01-12T17:33:40.373Z,1.92
2023-01-12T17:36:09.272Z,1.38
2023-01-12T17:38:37.269Z,1.30
2023-01-12T17:41:34.071Z,1.90
2023-01-12T17:44:03.178Z,3.00
2023-01-12T17:46:30.337Z,1.75
2023-01-12T17:49:05.581Z,1.98
2023-01-12T17:51:32.424Z,2.10
2023-01-12T17:54:00.523Z,2.70
2023-01-12T17:56:28.876Z,2.30
2023-01-12T17:58:55.400Z,3.03
2023-01-12T18:01:24.381Z,2.15
2023-01-12T18:03:51.313Z,8.77
2023-01-12T18:06:25.765Z,2.67
2023-01-12T18:08:56.077Z,3.90
2023-01-12T18:11:23.195Z,1.75
2023-01-12T18:13:49.561Z,2.05
2023-01-12T18:16:18.032Z,5.05
2023-01-12T18:18:44.908Z,2.38
2023-01-12T18:21:13.834Z,2.72
2023-01-12T18:23:41.620Z,2.90
2023-01-12T18:26:11.615Z,2.80
2023-01-12T18:28:37.968Z,3.88
2023-01-12T18:31:06.501Z,1.73
2023-01-12T18:33:32.925Z,2.95
2023-01-12T18:35:59.324Z,3.42
2023-01-12T18:38:29.361Z,3.25
2023-01-12T18:41:14.311Z,4.65
2023-01-12T18:43:42.049Z,3.35
2023-01-12T18:46:10.517Z,3.30
2023-01-12T18:48:36.953Z,4.20
2023-01-12T18:51:22.210Z,2.08
2023-01-12T18:53:48.770Z,1.63
2023-01-12T18:56:15.132Z,3.28
2023-01-12T18:58:43.049Z,1.58
2023-01-12T19:01:20.983Z,2.88
2023-01-12T19:03:48.732Z,3.83
2023-01-12T19:06:23.177Z,2.75
2023-01-12T19:09:12.245Z,4.10
2023-01-12T19:11:40.043Z,2.88
2023-01-12T19:14:29.618Z,2.67
2023-01-12T19:17:14.757Z,2.72
2023-01-12T19:19:41.062Z,1.20
2023-01-12T19:22:26.043Z,3.42
2023-01-12T19:25:16.535Z,1.67
2023-01-12T19:28:01.552Z,2.63
2023-01-12T19:30:28.177Z,2.15
2023-01-12T19:32:55.222Z,2.15
2023-01-12T19:35:21.670Z,2.00
2023-01-12T19:37:49.304Z,5.47
2023-01-12T19:40:19.248Z,2.97
2023-01-12T19:43:04.232Z,1.92
2023-01-12T19:45:30.635Z,2.92
2023-01-12T19:47:56.993Z,2.42
2023-01-12T19:50:23.321Z,2.00
2023-01-12T19:52:49.636Z,1.83
2023-01-12T19:55:16.338Z,3.97
2023-01-12T19:57:43.304Z,1.58
2023-01-12T20:00:14.010Z,2.45
2023-01-12T20:02:40.813Z,2.50
2023-01-12T20:05:07.626Z,3.80
2023-01-12T20:07:34.467Z,1.92
2023-01-12T20:10:01.169Z,2.67
2023-01-12T20:12:27.790Z,1.65
2023-01-12T20:14:54.237Z,2.58
2023-01-12T20:17:20.611Z,3.20
2023-01-12T20:19:48.736Z,3.38
2023-01-12T20:22:15.104Z,2.10
2023-01-12T20:24:41.524Z,2.58
2023-01-12T20:27:07.986Z,2.10
2023-01-12T20:29:34.407Z,1.83
2023-01-12T20:32:03.142Z,2.97
2023-01-12T20:34:31.465Z,1.13
2023-01-12T20:36:57.791Z,2.72
2023-01-12T20:39:24.164Z,1.25
2023-01-12T20:41:50.639Z,2.25
2023-01-12T20:44:17.754Z,1.38
2023-01-12T20:46:44.155Z,1.92
2023-01-12T20:49:11.072Z,2.58
2023-01-12T20:51:37.672Z,2.85
2023-01-12T20:54:05.270Z,2.10
2023-01-12T20:56:31.604Z,2.65
2023-01-12T20:58:59.020Z,1.20
2023-01-12T21:01:25.510Z,3.13
2023-01-12T21:03:51.877Z,2.63
2023-01-12T21:06:19.032Z,2.88
2023-01-12T21:08:46.959Z,2.75
2023-01-12T21:11:16.667Z,2.83
2023-01-12T21:13:44.186Z,2.90
2023-01-12T21:16:18.707Z,2.47
2023-01-12T21:18:45.688Z,3.78
2023-01-12T21:21:12.514Z,2.17
2023-01-12T21:23:38.978Z,2.45
2023-01-12T21:26:08.024Z,3.53
2023-01-12T21:28:37.473Z,2.25
2023-01-12T21:31:05.108Z,1.48
2023-01-12T21:33:31.533Z,4.85
2023-01-12T21:35:59.022Z,3.13
2023-01-12T21:38:26.175Z,2.85
2023-01-12T21:40:52.890Z,4.25
2023-01-12T21:43:19.791Z,4.00
2023-01-12T21:45:51.760Z,2.20
2023-01-12T21:48:20.236Z,2.95
2023-01-12T21:50:47.922Z,3.80
2023-01-12T21:53:19.855Z,3.10
2023-01-12T21:55:57.312Z,3.42
2023-01-12T21:58:25.260Z,6.10
2023-01-12T22:00:52.046Z,3.35
2023-01-12T22:03:18.901Z,4.40
2023-01-12T22:05:47.633Z,2.08
2023-01-12T22:08:14.154Z,3.00
2023-01-12T22:10:40.662Z,4.35
2023-01-12T22:13:09.949Z,5.55
2023-01-12T22:18:02.751Z,2.97
2023-01-12T22:20:29.184Z,5.60
2023-01-12T22:22:55.724Z,2.35
2023-01-12T22:25:22.319Z,4.25
2023-01-12T22:27:48.632Z,5.43
2023-01-12T22:30:17.570Z,1.55
2023-01-12T22:32:44.246Z,2.90
2023-01-12T22:35:11.239Z,3.75
2023-01-12T22:37:38.110Z,4.00
2023-01-12T22:40:07.204Z,2.58
2023-01-12T22:42:52.403Z,3.55
2023-01-12T22:45:18.852Z,2.67
2023-01-12T22:47:48.479Z,2.95
2023-01-12T22:50:15.252Z,4.25
2023-01-12T22:52:41.706Z,4.57
2023-01-12T22:55:08.465Z,3.13
2023-01-12T22:57:34.804Z,2.45
2023-01-12T23:00:01.194Z,2.83
2023-01-12T23:02:47.880Z,2.55
2023-01-12T23:05:14.318Z,2.75
2023-01-12T23:07:40.643Z,4.13
2023-01-12T23:10:08.196Z,3.15
2023-01-12T23:12:34.532Z,2.72
2023-01-12T23:15:00.888Z,4.72
2023-01-12T23:17:27.722Z,3.75
2023-01-12T23:19:54.061Z,3.92
2023-01-12T23:22:20.357Z,2.78
2023-01-12T23:24:46.662Z,4.57
2023-01-12T23:27:12.959Z,2.38
2023-01-12T23:29:39.454Z,2.75
2023-01-12T23:32:05.812Z,1.65
2023-01-12T23:34:32.239Z,3.47
2023-01-12T23:36:58.674Z,2.45
2023-01-12T23:39:25.054Z,5.32
2023-01-12T23:41:51.399Z,3.58
2023-01-12T23:44:18.965Z,2.58
2023-01-12T23:46:45.294Z,2.97
2023-01-12T23:49:11.631Z,2.78
2023-01-12T23:51:38.031Z,2.28
2023-01-12T23:54:04.619Z,2.33
2023-01-12T23:56:32.584Z,4.07
2023-01-12T23:58:59.138Z,5.47
